sensor_id;sensor_type;location;lat;lon;timestamp;temperature;humidity
34829;DHT22;21042;47.620;12.188;2023-05-10T00:00:32;14.40;99.90
34829;DHT22;21042;47.620;12.188;2023-05-10T00:02:59;14.40;99.90
34829;DHT22;21042;47.620;12.188;2023-05-10T00:05:26;14.20;99.90
34829;DHT22;21042;47.620;12.188;2023-05-10T00:07:53;14.20;99.90
34829;DHT22;21042;47.620;12.188;2023-05-10T00:10:19;14.10;99.90
34829;DHT22;21042;47.620;12.188;2023-05-10T00:12:46;14.20;99.90
34829;DHT22;21042;47.620;12.188;2023-05-10T00:15:13;13.90;99.90
34829;DHT22;21042;47.620;12.188;2023-05-10T00:17:39;13.80;99.90
34829;DHT22;21042;47.620;12.188;2023-05-10T00:20:07;13.80;99.90
34829;DHT22;21042;47.620;12.188;2023-05-10T00:22:34;13.70;99.90
34829;DHT22;21042;47.620;12.188;2023-05-10T00:25:01;13.60;99.90
34829;DHT22;21042;47.620;12.188;2023-05-10T00:27:27;13.60;99.90
34829;DHT22;21042;47.620;12.188;2023-05-10T00:29:54;13.50;99.90
34829;DHT22;21042;47.620;12.188;2023-05-10T00:32:21;13.70;99.90
34829;DHT22;21042;47.620;12.188;2023-05-10T00:34:48;13.50;99.90
34829;DHT22;21042;47.620;12.188;2023-05-10T00:37:15;13.50;99.90
34829;DHT22;21042;47.620;12.188;2023-05-10T00:39:41;13.50;99.90
34829;DHT22;21042;47.620;12.188;2023-05-10T00:42:08;13.40;99.90
34829;DHT22;21042;47.620;12.188;2023-05-10T00:44:35;13.40;99.90
34829;DHT22;21042;47.620;12.188;2023-05-10T00:47:02;13.40;99.90
34829;DHT22;21042;47.620;12.188;2023-05-10T00:49:29;13.40;99.90
34829;DHT22;21042;47.620;12.188;2023-05-10T00:51:56;13.40;99.90
34829;DHT22;21042;47.620;12.188;2023-05-10T00:54:23;13.40;99.90
34829;DHT22;21042;47.620;12.188;2023-05-10T00:56:50;13.40;99.90
34829;DHT22;21042;47.620;12.188;2023-05-10T00:59:18;13.40;99.90
34829;DHT22;21042;47.620;12.188;2023-05-10T01:01:45;13.30;99.90
34829;DHT22;21042;47.620;12.188;2023-05-10T01:04:13;13.40;99.90
34829;DHT22;21042;47.620;12.188;2023-05-10T01:06:41;13.40;99.90
34829;DHT22;21042;47.620;12.188;2023-05-10T01:09:08;13.40;99.90
34829;DHT22;21042;47.620;12.188;2023-05-10T01:11:37;13.40;99.90
34829;DHT22;21042;47.620;12.188;2023-05-10T01:14:05;13.30;99.90
34829;DHT22;21042;47.620;12.188;2023-05-10T01:16:36;13.30;99.90
34829;DHT22;21042;47.620;12.188;2023-05-10T01:19:23;13.30;99.90
34829;DHT22;21042;47.620;12.188;2023-05-10T01:22:02;13.40;99.90
34829;DHT22;21042;47.620;12.188;2023-05-10T01:33:15;13.40;99.90
34829;DHT22;21042;47.620;12.188;2023-05-10T01:38:56;13.30;99.90
34829;DHT22;21042;47.620;12.188;2023-05-10T01:41:36;13.30;99.90
34829;DHT22;21042;47.620;12.188;2023-05-10T01:47:05;13.20;99.90
34829;DHT22;21042;47.620;12.188;2023-05-10T01:49:45;13.20;99.90
34829;DHT22;21042;47.620;12.188;2023-05-10T01:52:16;13.10;99.90
34829;DHT22;21042;47.620;12.188;2023-05-10T01:54:53;13.10;99.90
34829;DHT22;21042;47.620;12.188;2023-05-10T01:57:22;13.10;99.90
34829;DHT22;21042;47.620;12.188;2023-05-10T01:59:52;13.10;99.90
34829;DHT22;21042;47.620;12.188;2023-05-10T02:02:20;13.10;99.90
34829;DHT22;21042;47.620;12.188;2023-05-10T02:04:48;13.00;99.90
34829;DHT22;21042;47.620;12.188;2023-05-10T02:07:16;13.10;99.90
34829;DHT22;21042;47.620;12.188;2023-05-10T02:09:44;13.10;99.90
34829;DHT22;21042;47.620;12.188;2023-05-10T02:12:15;13.00;99.90
34829;DHT22;21042;47.620;12.188;2023-05-10T02:14:43;13.10;99.90
34829;DHT22;21042;47.620;12.188;2023-05-10T02:17:11;13.10;99.90
34829;DHT22;21042;47.620;12.188;2023-05-10T02:19:40;13.10;99.90
34829;DHT22;21042;47.620;12.188;2023-05-10T02:22:09;13.10;99.90
34829;DHT22;21042;47.620;12.188;2023-05-10T02:24:36;13.00;99.90
34829;DHT22;21042;47.620;12.188;2023-05-10T02:27:04;13.00;99.90
34829;DHT22;21042;47.620;12.188;2023-05-10T02:29:31;13.10;99.90
34829;DHT22;21042;47.620;12.188;2023-05-10T02:31:59;13.10;99.90
34829;DHT22;21042;47.620;12.188;2023-05-10T02:34:27;13.10;99.90
34829;DHT22;21042;47.620;12.188;2023-05-10T02:36:55;13.10;99.90
34829;DHT22;21042;47.620;12.188;2023-05-10T02:39:23;13.10;99.90
34829;DHT22;21042;47.620;12.188;2023-05-10T02:41:52;13.10;99.90
34829;DHT22;21042;47.620;12.188;2023-05-10T02:44:20;13.10;99.90
34829;DHT22;21042;47.620;12.188;2023-05-10T02:46:48;13.10;99.90
34829;DHT22;21042;47.620;12.188;2023-05-10T02:49:15;13.10;99.90
34829;DHT22;21042;47.620;12.188;2023-05-10T02:51:45;13.10;99.90
34829;DHT22;21042;47.620;12.188;2023-05-10T02:54:22;13.10;99.90
34829;DHT22;21042;47.620;12.188;2023-05-10T02:56:57;13.00;99.90
34829;DHT22;21042;47.620;12.188;2023-05-10T02:59:24;13.00;99.90
34829;DHT22;21042;47.620;12.188;2023-05-10T03:01:51;13.10;99.90
34829;DHT22;21042;47.620;12.188;2023-05-10T03:04:18;13.10;99.90
34829;DHT22;21042;47.620;12.188;2023-05-10T03:06:45;13.10;99.90
34829;DHT22;21042;47.620;12.188;2023-05-10T03:09:12;13.10;99.90
34829;DHT22;21042;47.620;12.188;2023-05-10T03:12:04;13.10;99.90
34829;DHT22;21042;47.620;12.188;2023-05-10T03:14:45;13.10;99.90
34829;DHT22;21042;47.620;12.188;2023-05-10T03:17:23;13.10;99.90
34829;DHT22;21042;47.620;12.188;2023-05-10T03:19:57;13.00;99.90
34829;DHT22;21042;47.620;12.188;2023-05-10T03:22:29;13.10;99.90
34829;DHT22;21042;47.620;12.188;2023-05-10T03:24:57;13.10;99.90
34829;DHT22;21042;47.620;12.188;2023-05-10T03:27:28;13.10;99.90
34829;DHT22;21042;47.620;12.188;2023-05-10T03:29:56;13.10;99.90
34829;DHT22;21042;47.620;12.188;2023-05-10T03:32:23;13.10;99.90
34829;DHT22;21042;47.620;12.188;2023-05-10T03:34:50;13.00;99.90
34829;DHT22;21042;47.620;12.188;2023-05-10T03:37:17;13.10;99.90
34829;DHT22;21042;47.620;12.188;2023-05-10T03:39:44;13.00;99.90
34829;DHT22;21042;47.620;12.188;2023-05-10T03:42:11;13.00;99.90
34829;DHT22;21042;47.620;12.188;2023-05-10T03:44:41;13.00;99.90
34829;DHT22;21042;47.620;12.188;2023-05-10T03:47:08;13.00;99.90
34829;DHT22;21042;47.620;12.188;2023-05-10T03:49:35;12.90;99.90
34829;DHT22;21042;47.620;12.188;2023-05-10T03:52:03;13.00;99.90
34829;DHT22;21042;47.620;12.188;2023-05-10T03:54:30;12.90;99.90
34829;DHT22;21042;47.620;12.188;2023-05-10T03:56:58;12.90;99.90
34829;DHT22;21042;47.620;12.188;2023-05-10T03:59:25;12.90;99.90
34829;DHT22;21042;47.620;12.188;2023-05-10T04:01:51;12.90;99.90
34829;DHT22;21042;47.620;12.188;2023-05-10T04:04:18;12.80;99.90
34829;DHT22;21042;47.620;12.188;2023-05-10T04:06:49;12.80;99.90
34829;DHT22;21042;47.620;12.188;2023-05-10T04:09:15;12.90;99.90
34829;DHT22;21042;47.620;12.188;2023-05-10T04:11:43;12.90;99.90
34829;DHT22;21042;47.620;12.188;2023-05-10T04:14:10;12.90;99.90
34829;DHT22;21042;47.620;12.188;2023-05-10T04:16:37;12.90;99.90
34829;DHT22;21042;47.620;12.188;2023-05-10T04:19:04;12.90;99.90
34829;DHT22;21042;47.620;12.188;2023-05-10T04:21:30;12.90;99.90
34829;DHT22;21042;47.620;12.188;2023-05-10T04:23:57;12.90;99.90
34829;DHT22;21042;47.620;12.188;2023-05-10T04:26:24;12.90;99.90
34829;DHT22;21042;47.620;12.188;2023-05-10T04:28:51;12.90;99.90
34829;DHT22;21042;47.620;12.188;2023-05-10T04:31:18;13.00;99.90
34829;DHT22;21042;47.620;12.188;2023-05-10T04:33:45;12.90;99.90
34829;DHT22;21042;47.620;12.188;2023-05-10T04:36:12;13.00;99.90
34829;DHT22;21042;47.620;12.188;2023-05-10T04:38:38;13.00;99.90
34829;DHT22;21042;47.620;12.188;2023-05-10T04:41:06;13.00;99.90
34829;DHT22;21042;47.620;12.188;2023-05-10T04:43:34;13.10;99.90
34829;DHT22;21042;47.620;12.188;2023-05-10T04:46:01;13.10;99.90
34829;DHT22;21042;47.620;12.188;2023-05-10T04:48:28;13.10;99.90
34829;DHT22;21042;47.620;12.188;2023-05-10T04:50:54;13.10;99.90
34829;DHT22;21042;47.620;12.188;2023-05-10T04:53:21;13.10;99.90
34829;DHT22;21042;47.620;12.188;2023-05-10T04:55:48;13.10;99.90
34829;DHT22;21042;47.620;12.188;2023-05-10T04:58:15;13.20;99.90
34829;DHT22;21042;47.620;12.188;2023-05-10T05:00:42;13.20;99.90
34829;DHT22;21042;47.620;12.188;2023-05-10T05:03:09;13.20;99.90
34829;DHT22;21042;47.620;12.188;2023-05-10T05:05:36;13.20;99.90
34829;DHT22;21042;47.620;12.188;2023-05-10T05:08:03;13.20;99.90
34829;DHT22;21042;47.620;12.188;2023-05-10T05:10:29;13.20;99.90
34829;DHT22;21042;47.620;12.188;2023-05-10T05:12:56;13.20;99.90
34829;DHT22;21042;47.620;12.188;2023-05-10T05:15:23;13.20;99.90
34829;DHT22;21042;47.620;12.188;2023-05-10T05:17:50;13.30;99.90
34829;DHT22;21042;47.620;12.188;2023-05-10T05:20:17;13.30;99.90
34829;DHT22;21042;47.620;12.188;2023-05-10T05:22:45;13.30;99.90
34829;DHT22;21042;47.620;12.188;2023-05-10T05:25:12;13.40;99.90
34829;DHT22;21042;47.620;12.188;2023-05-10T05:27:39;13.40;99.90
34829;DHT22;21042;47.620;12.188;2023-05-10T05:30:06;13.50;99.90
34829;DHT22;21042;47.620;12.188;2023-05-10T05:32:33;13.50;99.90
34829;DHT22;21042;47.620;12.188;2023-05-10T05:35:00;13.50;99.90
34829;DHT22;21042;47.620;12.188;2023-05-10T05:37:27;13.50;99.90
34829;DHT22;21042;47.620;12.188;2023-05-10T05:39:53;13.60;99.90
34829;DHT22;21042;47.620;12.188;2023-05-10T05:42:21;13.60;99.90
34829;DHT22;21042;47.620;12.188;2023-05-10T05:44:48;13.60;99.90
34829;DHT22;21042;47.620;12.188;2023-05-10T05:47:15;13.60;99.90
34829;DHT22;21042;47.620;12.188;2023-05-10T05:49:41;13.60;99.90
34829;DHT22;21042;47.620;12.188;2023-05-10T05:52:08;13.60;99.90
34829;DHT22;21042;47.620;12.188;2023-05-10T05:54:35;13.60;99.90
34829;DHT22;21042;47.620;12.188;2023-05-10T05:57:01;13.60;99.90
34829;DHT22;21042;47.620;12.188;2023-05-10T05:59:28;13.50;99.90
34829;DHT22;21042;47.620;12.188;2023-05-10T06:01:55;13.60;99.90
34829;DHT22;21042;47.620;12.188;2023-05-10T06:04:22;13.60;99.90
34829;DHT22;21042;47.620;12.188;2023-05-10T06:06:49;13.60;99.90
34829;DHT22;21042;47.620;12.188;2023-05-10T06:09:15;13.50;99.90
34829;DHT22;21042;47.620;12.188;2023-05-10T06:11:42;13.50;99.90
34829;DHT22;21042;47.620;12.188;2023-05-10T06:14:09;13.50;99.90
34829;DHT22;21042;47.620;12.188;2023-05-10T06:16:36;13.50;99.90
34829;DHT22;21042;47.620;12.188;2023-05-10T06:19:03;13.50;99.90
34829;DHT22;21042;47.620;12.188;2023-05-10T06:21:30;13.50;99.90
34829;DHT22;21042;47.620;12.188;2023-05-10T06:23:57;13.50;99.90
34829;DHT22;21042;47.620;12.188;2023-05-10T06:26:23;13.50;99.90
34829;DHT22;21042;47.620;12.188;2023-05-10T06:28:51;13.40;99.90
34829;DHT22;21042;47.620;12.188;2023-05-10T06:31:18;13.40;99.90
34829;DHT22;21042;47.620;12.188;2023-05-10T06:33:45;13.30;99.90
34829;DHT22;21042;47.620;12.188;2023-05-10T06:36:11;13.30;99.90
34829;DHT22;21042;47.620;12.188;2023-05-10T06:38:39;13.30;99.90
34829;DHT22;21042;47.620;12.188;2023-05-10T06:41:06;13.30;99.90
34829;DHT22;21042;47.620;12.188;2023-05-10T06:43:33;13.40;99.90
34829;DHT22;21042;47.620;12.188;2023-05-10T06:45:59;13.50;99.90
34829;DHT22;21042;47.620;12.188;2023-05-10T06:48:26;13.50;99.90
34829;DHT22;21042;47.620;12.188;2023-05-10T06:50:53;13.60;99.90
34829;DHT22;21042;47.620;12.188;2023-05-10T06:53:20;13.60;99.90
34829;DHT22;21042;47.620;12.188;2023-05-10T06:55:47;13.70;99.90
34829;DHT22;21042;47.620;12.188;2023-05-10T06:58:15;13.70;99.90
34829;DHT22;21042;47.620;12.188;2023-05-10T07:00:42;13.80;99.90
34829;DHT22;21042;47.620;12.188;2023-05-10T07:03:10;13.80;99.90
34829;DHT22;21042;47.620;12.188;2023-05-10T07:05:37;13.80;99.90
34829;DHT22;21042;47.620;12.188;2023-05-10T07:08:04;13.90;99.90
34829;DHT22;21042;47.620;12.188;2023-05-10T07:10:31;13.90;99.90
34829;DHT22;21042;47.620;12.188;2023-05-10T07:12:57;13.90;99.90
34829;DHT22;21042;47.620;12.188;2023-05-10T07:15:24;14.00;99.90
34829;DHT22;21042;47.620;12.188;2023-05-10T07:17:51;14.00;99.90
34829;DHT22;21042;47.620;12.188;2023-05-10T07:20:18;14.00;99.90
34829;DHT22;21042;47.620;12.188;2023-05-10T07:22:45;14.00;99.90
34829;DHT22;21042;47.620;12.188;2023-05-10T07:25:12;14.00;99.90
34829;DHT22;21042;47.620;12.188;2023-05-10T07:27:39;14.00;99.90
34829;DHT22;21042;47.620;12.188;2023-05-10T07:30:06;14.00;99.90
34829;DHT22;21042;47.620;12.188;2023-05-10T07:32:33;14.00;99.90
34829;DHT22;21042;47.620;12.188;2023-05-10T07:35:00;14.00;99.90
34829;DHT22;21042;47.620;12.188;2023-05-10T07:37:27;13.90;99.90
34829;DHT22;21042;47.620;12.188;2023-05-10T07:39:54;13.90;99.90
34829;DHT22;21042;47.620;12.188;2023-05-10T07:42:21;13.80;99.90
34829;DHT22;21042;47.620;12.188;2023-05-10T07:44:47;13.70;99.90
34829;DHT22;21042;47.620;12.188;2023-05-10T07:47:14;13.70;99.90
34829;DHT22;21042;47.620;12.188;2023-05-10T07:49:41;13.80;99.90
34829;DHT22;21042;47.620;12.188;2023-05-10T07:52:07;13.80;99.90
34829;DHT22;21042;47.620;12.188;2023-05-10T07:54:34;13.80;99.90
34829;DHT22;21042;47.620;12.188;2023-05-10T07:57:01;13.80;99.90
34829;DHT22;21042;47.620;12.188;2023-05-10T07:59:28;13.80;99.90
34829;DHT22;21042;47.620;12.188;2023-05-10T08:01:54;13.70;99.90
34829;DHT22;21042;47.620;12.188;2023-05-10T08:04:21;13.60;99.90
34829;DHT22;21042;47.620;12.188;2023-05-10T08:06:48;13.60;99.90
34829;DHT22;21042;47.620;12.188;2023-05-10T08:09:15;13.60;99.90
34829;DHT22;21042;47.620;12.188;2023-05-10T08:11:42;13.70;99.90
34829;DHT22;21042;47.620;12.188;2023-05-10T08:14:09;13.70;99.90
34829;DHT22;21042;47.620;12.188;2023-05-10T08:16:36;13.80;99.90
34829;DHT22;21042;47.620;12.188;2023-05-10T08:19:03;13.80;99.90
34829;DHT22;21042;47.620;12.188;2023-05-10T08:21:30;13.80;99.90
34829;DHT22;21042;47.620;12.188;2023-05-10T08:23:57;13.90;99.90
34829;DHT22;21042;47.620;12.188;2023-05-10T08:26:24;13.90;99.90
34829;DHT22;21042;47.620;12.188;2023-05-10T08:28:51;13.90;99.90
34829;DHT22;21042;47.620;12.188;2023-05-10T08:31:18;13.90;99.90
34829;DHT22;21042;47.620;12.188;2023-05-10T08:33:45;14.00;99.90
34829;DHT22;21042;47.620;12.188;2023-05-10T08:36:11;14.00;99.90
34829;DHT22;21042;47.620;12.188;2023-05-10T08:38:40;14.00;99.90
34829;DHT22;21042;47.620;12.188;2023-05-10T08:41:07;14.00;99.90
34829;DHT22;21042;47.620;12.188;2023-05-10T08:43:35;14.10;99.90
34829;DHT22;21042;47.620;12.188;2023-05-10T08:46:05;14.10;99.90
34829;DHT22;21042;47.620;12.188;2023-05-10T08:48:33;14.20;99.90
34829;DHT22;21042;47.620;12.188;2023-05-10T08:51:01;14.10;99.90
34829;DHT22;21042;47.620;12.188;2023-05-10T08:53:30;14.10;99.90
34829;DHT22;21042;47.620;12.188;2023-05-10T08:55:58;14.00;99.90
34829;DHT22;21042;47.620;12.188;2023-05-10T08:58:25;13.90;99.90
34829;DHT22;21042;47.620;12.188;2023-05-10T09:00:52;13.90;99.90
34829;DHT22;21042;47.620;12.188;2023-05-10T09:03:20;14.00;99.90
34829;DHT22;21042;47.620;12.188;2023-05-10T09:05:47;13.90;99.90
34829;DHT22;21042;47.620;12.188;2023-05-10T09:08:15;13.90;99.90
34829;DHT22;21042;47.620;12.188;2023-05-10T09:10:44;13.90;99.90
34829;DHT22;21042;47.620;12.188;2023-05-10T09:13:11;13.80;99.90
34829;DHT22;21042;47.620;12.188;2023-05-10T09:15:38;13.90;99.90
34829;DHT22;21042;47.620;12.188;2023-05-10T09:18:05;13.90;99.90
34829;DHT22;21042;47.620;12.188;2023-05-10T09:20:32;13.90;99.90
34829;DHT22;21042;47.620;12.188;2023-05-10T09:22:58;13.80;99.90
34829;DHT22;21042;47.620;12.188;2023-05-10T09:25:25;13.80;99.90
34829;DHT22;21042;47.620;12.188;2023-05-10T09:27:52;13.90;99.90
34829;DHT22;21042;47.620;12.188;2023-05-10T09:30:27;14.10;99.90
34829;DHT22;21042;47.620;12.188;2023-05-10T09:32:55;14.20;99.90
34829;DHT22;21042;47.620;12.188;2023-05-10T09:35:25;14.30;99.90
34829;DHT22;21042;47.620;12.188;2023-05-10T09:37:56;14.20;99.90
34829;DHT22;21042;47.620;12.188;2023-05-10T09:40:25;14.30;99.90
34829;DHT22;21042;47.620;12.188;2023-05-10T09:42:55;14.20;99.90
34829;DHT22;21042;47.620;12.188;2023-05-10T09:45:24;14.20;99.90
34829;DHT22;21042;47.620;12.188;2023-05-10T09:47:51;14.30;99.90
34829;DHT22;21042;47.620;12.188;2023-05-10T09:50:19;14.40;99.90
34829;DHT22;21042;47.620;12.188;2023-05-10T09:52:54;14.60;99.90
34829;DHT22;21042;47.620;12.188;2023-05-10T09:55:23;14.80;99.90
34829;DHT22;21042;47.620;12.188;2023-05-10T09:57:59;15.20;99.90
34829;DHT22;21042;47.620;12.188;2023-05-10T10:00:27;15.50;99.90
34829;DHT22;21042;47.620;12.188;2023-05-10T10:02:56;15.80;99.90
34829;DHT22;21042;47.620;12.188;2023-05-10T10:05:34;16.20;99.90
34829;DHT22;21042;47.620;12.188;2023-05-10T10:08:05;16.50;99.90
34829;DHT22;21042;47.620;12.188;2023-05-10T10:10:33;16.60;99.90
34829;DHT22;21042;47.620;12.188;2023-05-10T10:13:00;16.70;99.90
34829;DHT22;21042;47.620;12.188;2023-05-10T10:15:28;16.80;99.90
34829;DHT22;21042;47.620;12.188;2023-05-10T10:17:54;16.90;99.90
34829;DHT22;21042;47.620;12.188;2023-05-10T10:20:22;17.00;99.90
34829;DHT22;21042;47.620;12.188;2023-05-10T10:22:50;16.90;99.90
34829;DHT22;21042;47.620;12.188;2023-05-10T10:25:18;16.80;99.90
34829;DHT22;21042;47.620;12.188;2023-05-10T10:35:55;16.90;99.90
34829;DHT22;21042;47.620;12.188;2023-05-10T10:38:24;16.70;99.90
34829;DHT22;21042;47.620;12.188;2023-05-10T10:41:12;16.70;99.90
34829;DHT22;21042;47.620;12.188;2023-05-10T10:50:05;16.10;99.90
34829;DHT22;21042;47.620;12.188;2023-05-10T10:52:39;15.90;99.90
34829;DHT22;21042;47.620;12.188;2023-05-10T11:03:08;15.10;99.90
34829;DHT22;21042;47.620;12.188;2023-05-10T11:08:27;14.70;99.90
34829;DHT22;21042;47.620;12.188;2023-05-10T11:13:38;14.60;99.90
34829;DHT22;21042;47.620;12.188;2023-05-10T11:19:03;14.50;99.90
34829;DHT22;21042;47.620;12.188;2023-05-10T11:21:32;14.50;99.90
34829;DHT22;21042;47.620;12.188;2023-05-10T11:24:00;14.60;99.90
34829;DHT22;21042;47.620;12.188;2023-05-10T11:26:34;14.70;99.90
34829;DHT22;21042;47.620;12.188;2023-05-10T11:29:01;14.90;99.90
34829;DHT22;21042;47.620;12.188;2023-05-10T11:31:29;14.80;99.90
34829;DHT22;21042;47.620;12.188;2023-05-10T11:33:58;14.80;99.90
34829;DHT22;21042;47.620;12.188;2023-05-10T11:36:27;14.90;99.90
34829;DHT22;21042;47.620;12.188;2023-05-10T11:38:56;14.90;99.90
34829;DHT22;21042;47.620;12.188;2023-05-10T11:41:24;14.90;99.90
34829;DHT22;21042;47.620;12.188;2023-05-10T11:43:52;14.80;99.90
34829;DHT22;21042;47.620;12.188;2023-05-10T11:46:20;14.50;99.90
34829;DHT22;21042;47.620;12.188;2023-05-10T11:49:01;14.60;99.90
34829;DHT22;21042;47.620;12.188;2023-05-10T11:51:28;14.60;99.90
34829;DHT22;21042;47.620;12.188;2023-05-10T11:53:56;14.60;99.90
34829;DHT22;21042;47.620;12.188;2023-05-10T11:56:23;14.50;99.90
34829;DHT22;21042;47.620;12.188;2023-05-10T11:58:55;14.50;99.90
34829;DHT22;21042;47.620;12.188;2023-05-10T12:01:24;14.40;99.90
34829;DHT22;21042;47.620;12.188;2023-05-10T12:03:53;14.40;99.90
34829;DHT22;21042;47.620;12.188;2023-05-10T12:06:21;14.50;99.90
34829;DHT22;21042;47.620;12.188;2023-05-10T12:08:48;14.60;99.90
34829;DHT22;21042;47.620;12.188;2023-05-10T12:11:20;14.60;99.90
34829;DHT22;21042;47.620;12.188;2023-05-10T12:13:51;14.80;99.90
34829;DHT22;21042;47.620;12.188;2023-05-10T12:16:19;14.90;99.90
34829;DHT22;21042;47.620;12.188;2023-05-10T12:18:53;15.20;99.90
34829;DHT22;21042;47.620;12.188;2023-05-10T12:21:20;15.50;99.90
34829;DHT22;21042;47.620;12.188;2023-05-10T12:23:52;15.70;99.90
34829;DHT22;21042;47.620;12.188;2023-05-10T12:26:23;15.80;99.90
34829;DHT22;21042;47.620;12.188;2023-05-10T12:28:51;16.10;99.90
34829;DHT22;21042;47.620;12.188;2023-05-10T12:31:17;16.20;99.90
34829;DHT22;21042;47.620;12.188;2023-05-10T12:33:45;16.30;99.90
34829;DHT22;21042;47.620;12.188;2023-05-10T12:36:14;16.50;99.90
34829;DHT22;21042;47.620;12.188;2023-05-10T12:38:43;16.50;99.90
34829;DHT22;21042;47.620;12.188;2023-05-10T12:41:11;16.60;99.90
34829;DHT22;21042;47.620;12.188;2023-05-10T12:43:39;16.60;99.90
34829;DHT22;21042;47.620;12.188;2023-05-10T12:48:37;16.50;99.90
34829;DHT22;21042;47.620;12.188;2023-05-10T12:51:05;16.50;99.90
34829;DHT22;21042;47.620;12.188;2023-05-10T12:53:31;16.40;99.90
34829;DHT22;21042;47.620;12.188;2023-05-10T12:55:58;16.40;99.90
34829;DHT22;21042;47.620;12.188;2023-05-10T12:58:25;16.40;99.90
34829;DHT22;21042;47.620;12.188;2023-05-10T13:01:01;16.40;99.90
34829;DHT22;21042;47.620;12.188;2023-05-10T13:03:28;16.20;99.90
34829;DHT22;21042;47.620;12.188;2023-05-10T13:05:55;16.10;99.90
34829;DHT22;21042;47.620;12.188;2023-05-10T13:08:21;16.00;99.90
34829;DHT22;21042;47.620;12.188;2023-05-10T13:10:48;15.80;99.90
34829;DHT22;21042;47.620;12.188;2023-05-10T13:13:15;15.70;99.90
34829;DHT22;21042;47.620;12.188;2023-05-10T13:15:42;15.70;99.90
34829;DHT22;21042;47.620;12.188;2023-05-10T13:18:09;15.80;99.90
34829;DHT22;21042;47.620;12.188;2023-05-10T13:20:36;15.80;99.90
34829;DHT22;21042;47.620;12.188;2023-05-10T13:23:02;15.70;99.90
34829;DHT22;21042;47.620;12.188;2023-05-10T13:25:29;15.60;99.90
34829;DHT22;21042;47.620;12.188;2023-05-10T13:27:56;15.50;99.90
34829;DHT22;21042;47.620;12.188;2023-05-10T13:30:23;15.40;99.90
34829;DHT22;21042;47.620;12.188;2023-05-10T13:32:50;15.20;99.90
34829;DHT22;21042;47.620;12.188;2023-05-10T13:35:17;15.10;99.90
34829;DHT22;21042;47.620;12.188;2023-05-10T13:37:44;15.00;99.90
34829;DHT22;21042;47.620;12.188;2023-05-10T13:40:11;14.90;99.90
34829;DHT22;21042;47.620;12.188;2023-05-10T13:42:38;14.70;99.90
34829;DHT22;21042;47.620;12.188;2023-05-10T13:45:05;14.60;99.90
34829;DHT22;21042;47.620;12.188;2023-05-10T13:47:32;14.50;99.90
34829;DHT22;21042;47.620;12.188;2023-05-10T13:49:59;14.40;99.90
34829;DHT22;21042;47.620;12.188;2023-05-10T13:52:26;14.40;99.90
34829;DHT22;21042;47.620;12.188;2023-05-10T13:54:53;14.30;99.90
34829;DHT22;21042;47.620;12.188;2023-05-10T13:57:22;14.30;99.90
34829;DHT22;21042;47.620;12.188;2023-05-10T13:59:50;14.30;99.90
34829;DHT22;21042;47.620;12.188;2023-05-10T14:02:17;14.20;99.90
34829;DHT22;21042;47.620;12.188;2023-05-10T14:04:44;14.20;99.90
34829;DHT22;21042;47.620;12.188;2023-05-10T14:07:11;14.10;99.90
34829;DHT22;21042;47.620;12.188;2023-05-10T14:09:38;14.00;99.90
34829;DHT22;21042;47.620;12.188;2023-05-10T14:12:04;13.90;99.90
34829;DHT22;21042;47.620;12.188;2023-05-10T14:14:31;13.70;99.90
34829;DHT22;21042;47.620;12.188;2023-05-10T14:16:58;13.60;99.90
34829;DHT22;21042;47.620;12.188;2023-05-10T14:19:25;13.50;99.90
34829;DHT22;21042;47.620;12.188;2023-05-10T14:21:53;13.40;99.90
34829;DHT22;21042;47.620;12.188;2023-05-10T14:24:20;13.30;99.90
34829;DHT22;21042;47.620;12.188;2023-05-10T14:26:46;13.30;99.90
34829;DHT22;21042;47.620;12.188;2023-05-10T14:29:13;13.30;99.90
34829;DHT22;21042;47.620;12.188;2023-05-10T14:31:40;13.20;99.90
34829;DHT22;21042;47.620;12.188;2023-05-10T14:34:07;13.10;99.90
34829;DHT22;21042;47.620;12.188;2023-05-10T14:36:33;13.00;99.90
34829;DHT22;21042;47.620;12.188;2023-05-10T14:39:00;13.10;99.90
34829;DHT22;21042;47.620;12.188;2023-05-10T14:41:27;13.10;99.90
34829;DHT22;21042;47.620;12.188;2023-05-10T14:43:54;13.20;99.90
34829;DHT22;21042;47.620;12.188;2023-05-10T14:46:20;13.20;99.90
34829;DHT22;21042;47.620;12.188;2023-05-10T14:48:47;13.20;99.90
34829;DHT22;21042;47.620;12.188;2023-05-10T14:51:14;13.30;99.90
34829;DHT22;21042;47.620;12.188;2023-05-10T14:53:40;13.30;99.90
34829;DHT22;21042;47.620;12.188;2023-05-10T14:56:07;13.30;99.90
34829;DHT22;21042;47.620;12.188;2023-05-10T14:58:34;13.40;99.90
34829;DHT22;21042;47.620;12.188;2023-05-10T15:01:01;13.50;99.90
34829;DHT22;21042;47.620;12.188;2023-05-10T15:03:28;13.50;99.90
34829;DHT22;21042;47.620;12.188;2023-05-10T15:05:55;13.50;99.90
34829;DHT22;21042;47.620;12.188;2023-05-10T15:08:24;13.70;99.90
34829;DHT22;21042;47.620;12.188;2023-05-10T15:10:51;13.60;99.90
34829;DHT22;21042;47.620;12.188;2023-05-10T15:13:18;13.50;99.90
34829;DHT22;21042;47.620;12.188;2023-05-10T15:15:44;13.50;99.90
34829;DHT22;21042;47.620;12.188;2023-05-10T15:18:11;13.50;99.90
34829;DHT22;21042;47.620;12.188;2023-05-10T15:20:38;13.60;99.90
34829;DHT22;21042;47.620;12.188;2023-05-10T15:23:05;13.50;99.90
34829;DHT22;21042;47.620;12.188;2023-05-10T15:25:31;13.50;99.90
34829;DHT22;21042;47.620;12.188;2023-05-10T15:28:01;13.40;99.90
34829;DHT22;21042;47.620;12.188;2023-05-10T15:30:29;13.30;99.90
34829;DHT22;21042;47.620;12.188;2023-05-10T15:32:56;13.10;99.90
34829;DHT22;21042;47.620;12.188;2023-05-10T15:35:22;13.10;99.90
34829;DHT22;21042;47.620;12.188;2023-05-10T15:37:49;13.00;99.90
34829;DHT22;21042;47.620;12.188;2023-05-10T15:40:16;13.00;99.90
34829;DHT22;21042;47.620;12.188;2023-05-10T15:42:43;13.00;99.90
34829;DHT22;21042;47.620;12.188;2023-05-10T15:45:10;13.00;99.90
34829;DHT22;21042;47.620;12.188;2023-05-10T15:47:37;12.90;99.90
34829;DHT22;21042;47.620;12.188;2023-05-10T15:50:06;12.90;99.90
34829;DHT22;21042;47.620;12.188;2023-05-10T15:52:34;13.00;99.90
34829;DHT22;21042;47.620;12.188;2023-05-10T15:55:01;13.00;99.90
34829;DHT22;21042;47.620;12.188;2023-05-10T15:57:29;13.00;99.90
34829;DHT22;21042;47.620;12.188;2023-05-10T15:59:56;13.00;99.90
34829;DHT22;21042;47.620;12.188;2023-05-10T16:02:23;13.00;99.90
34829;DHT22;21042;47.620;12.188;2023-05-10T16:04:50;13.00;99.90
34829;DHT22;21042;47.620;12.188;2023-05-10T16:07:17;13.00;99.90